createdAt,value
2017-06-20T00:01:06.836Z,101164.11
2017-06-20T00:03:39.155Z,101166.16
2017-06-20T00:06:11.532Z,101166.55
2017-06-20T00:08:43.914Z,101169.91
2017-06-20T00:11:16.211Z,101169.81
2017-06-20T00:13:48.437Z,101163.23
2017-06-20T00:16:20.767Z,101168.95
2017-06-20T00:18:53.083Z,101167.72
2017-06-20T00:21:25.460Z,101169.00
2017-06-20T00:23:57.936Z,101162.84
2017-06-20T00:26:30.323Z,101156.25
2017-06-20T00:29:02.716Z,101156.44
2017-06-20T00:31:34.948Z,101153.42
2017-06-20T00:34:07.193Z,101151.05
2017-06-20T00:36:39.512Z,101154.94
2017-06-20T00:39:11.787Z,101156.39
2017-06-20T00:41:44.183Z,101153.92
2017-06-20T00:44:16.587Z,101154.08
2017-06-20T00:46:49.016Z,101154.84
2017-06-20T00:49:21.391Z,101148.01
2017-06-20T00:51:53.776Z,101146.79
2017-06-20T00:54:26.149Z,101145.92
2017-06-20T00:56:58.489Z,101139.44
2017-06-20T00:59:30.768Z,101142.34
2017-06-20T01:02:03.308Z,101144.38
2017-06-20T01:04:35.804Z,101147.98
2017-06-20T01:07:07.883Z,101144.55
2017-06-20T01:09:40.275Z,101144.80
2017-06-20T01:12:12.928Z,101144.77
2017-06-20T01:14:45.138Z,101138.89
2017-06-20T01:17:17.492Z,101140.41
2017-06-20T01:19:49.885Z,101140.84
2017-06-20T01:22:22.232Z,101142.76
2017-06-20T01:24:54.596Z,101145.41
2017-06-20T01:27:27.135Z,101138.41
2017-06-20T01:29:59.595Z,101137.97
2017-06-20T01:32:31.848Z,101145.69
2017-06-20T01:35:04.278Z,101150.02
2017-06-20T01:37:37.046Z,101147.95
2017-06-20T01:40:09.227Z,101146.23
2017-06-20T01:42:41.647Z,101146.06
2017-06-20T01:45:13.996Z,101142.85
2017-06-20T01:47:46.527Z,101144.97
2017-06-20T01:50:18.839Z,101144.09
2017-06-20T01:52:51.245Z,101142.86
2017-06-20T01:55:23.610Z,101151.61
2017-06-20T01:57:55.966Z,101155.48
2017-06-20T02:00:28.348Z,101151.35
2017-06-20T02:03:00.655Z,101155.92
2017-06-20T02:05:32.951Z,101154.91
2017-06-20T02:08:06.352Z,101153.27
2017-06-20T02:10:38.468Z,101155.05
2017-06-20T02:13:10.756Z,101155.73
2017-06-20T02:15:43.015Z,101157.19
2017-06-20T02:18:16.208Z,101156.56
2017-06-20T02:20:48.843Z,101160.92
2017-06-20T02:23:21.400Z,101161.59
2017-06-20T02:25:53.711Z,101153.66
2017-06-20T02:28:26.091Z,101157.05
2017-06-20T02:30:58.372Z,101150.53
2017-06-20T02:33:30.739Z,101146.24
2017-06-20T02:36:03.116Z,101145.35
2017-06-20T02:38:35.530Z,101151.02
2017-06-20T02:41:07.750Z,101152.86
2017-06-20T02:43:40.241Z,101152.11
2017-06-20T02:46:12.606Z,101148.38
2017-06-20T02:48:45.077Z,101148.99
2017-06-20T02:51:17.272Z,101146.17
2017-06-20T02:53:49.583Z,101155.37
2017-06-20T02:56:21.895Z,101142.39
2017-06-20T02:58:54.388Z,101150.77
2017-06-20T03:01:26.783Z,101150.22
2017-06-20T03:03:59.101Z,101149.21
2017-06-20T03:06:31.376Z,101145.05
2017-06-20T03:09:03.734Z,101144.12
2017-06-20T03:11:36.076Z,101150.77
2017-06-20T03:14:08.374Z,101149.27
2017-06-20T03:16:40.739Z,101146.87
2017-06-20T03:19:13.140Z,101156.55
2017-06-20T03:21:45.611Z,101158.53
2017-06-20T03:24:19.074Z,101158.53
2017-06-20T03:26:51.292Z,101161.89
2017-06-20T03:29:23.730Z,101160.44
2017-06-20T03:31:56.128Z,101156.48
2017-06-20T03:34:28.539Z,101161.86
2017-06-20T03:37:00.933Z,101165.86
2017-06-20T03:39:33.279Z,101163.10
2017-06-20T03:42:05.936Z,101164.20
2017-06-20T03:44:37.911Z,101157.66
2017-06-20T03:47:10.228Z,101157.08
2017-06-20T03:49:42.632Z,101158.05
2017-06-20T03:52:15.160Z,101162.95
2017-06-20T03:54:48.051Z,101156.97
2017-06-20T03:57:21.052Z,101151.56
2017-06-20T03:59:53.270Z,101153.81
2017-06-20T04:02:25.636Z,101158.92
2017-06-20T04:04:58.332Z,101164.48
2017-06-20T04:07:30.489Z,101172.59
2017-06-20T04:10:02.862Z,101182.15
2017-06-20T04:12:35.305Z,101185.05
2017-06-20T04:15:07.843Z,101184.86
2017-06-20T04:17:40.080Z,101188.41
2017-06-20T04:20:12.135Z,101196.87
2017-06-20T04:22:44.499Z,101191.53
2017-06-20T04:25:16.914Z,101196.94
2017-06-20T04:27:49.302Z,101192.78
2017-06-20T04:30:21.832Z,101191.41
2017-06-20T04:32:54.307Z,101185.87
2017-06-20T04:35:26.721Z,101183.56
2017-06-20T04:37:59.020Z,101187.41
2017-06-20T04:40:31.524Z,101191.48
2017-06-20T04:43:03.899Z,101194.83
2017-06-20T04:45:36.237Z,101194.87
2017-06-20T04:48:08.883Z,101191.48
2017-06-20T04:50:40.900Z,101197.05
2017-06-20T04:53:13.134Z,101196.33
2017-06-20T04:55:45.343Z,101187.66
2017-06-20T04:58:17.555Z,101188.58
2017-06-20T05:00:49.856Z,101187.84
2017-06-20T05:03:22.060Z,101190.48
2017-06-20T05:05:54.496Z,101191.17
2017-06-20T05:08:27.915Z,101191.28
2017-06-20T05:11:00.084Z,101197.13
2017-06-20T05:13:33.160Z,101208.41
2017-06-20T05:16:06.784Z,101215.23
2017-06-20T05:18:39.393Z,101211.94
2017-06-20T05:21:11.588Z,101216.51
2017-06-20T05:23:43.784Z,101211.58
2017-06-20T05:26:16.196Z,101214.88
2017-06-20T05:28:48.509Z,101219.87
2017-06-20T05:31:20.973Z,101216.13
2017-06-20T05:33:53.500Z,101225.83
2017-06-20T05:36:26.507Z,101218.70
2017-06-20T05:38:58.880Z,101216.37
2017-06-20T05:41:31.316Z,101227.09
2017-06-20T05:44:03.722Z,101225.12
2017-06-20T05:46:36.107Z,101219.94
2017-06-20T05:49:08.493Z,101233.37
2017-06-20T05:51:40.927Z,101231.06
2017-06-20T05:54:13.435Z,101230.80
2017-06-20T05:56:45.739Z,101231.20
2017-06-20T05:59:18.060Z,101231.73
2017-06-20T06:01:50.292Z,101232.59
2017-06-20T06:04:22.763Z,101232.02
2017-06-20T06:06:55.259Z,101232.78
2017-06-20T06:09:27.544Z,101235.47
2017-06-20T06:12:00.018Z,101236.25
2017-06-20T06:14:32.319Z,101234.25
2017-06-20T06:17:04.717Z,101241.08
2017-06-20T06:19:37.095Z,101241.30
2017-06-20T06:22:10.352Z,101237.56
2017-06-20T06:24:42.928Z,101238.59
2017-06-20T06:27:15.339Z,101241.75
2017-06-20T06:29:47.578Z,101251.09
2017-06-20T06:32:19.836Z,101247.61
2017-06-20T06:34:52.252Z,101250.56
2017-06-20T06:37:24.625Z,101256.83
2017-06-20T06:39:57.195Z,101252.21
2017-06-20T06:42:30.032Z,101252.17
2017-06-20T06:45:02.748Z,101253.47
2017-06-20T06:47:35.147Z,101256.36
2017-06-20T06:50:07.539Z,101255.20
2017-06-20T06:52:40.000Z,101254.20
2017-06-20T06:55:12.241Z,101257.27
2017-06-20T06:57:44.492Z,101260.98
2017-06-20T07:00:16.787Z,101264.87
2017-06-20T07:02:49.400Z,101263.77
2017-06-20T07:05:21.653Z,101267.55
2017-06-20T07:07:54.040Z,101262.47
2017-06-20T07:10:27.189Z,101262.31
2017-06-20T07:12:59.893Z,101258.27
2017-06-20T07:15:32.236Z,101275.14
2017-06-20T07:18:04.766Z,101271.79
2017-06-20T07:20:37.096Z,101266.13
2017-06-20T07:23:09.488Z,101278.20
2017-06-20T07:25:42.203Z,101271.61
2017-06-20T07:28:14.143Z,101277.66
2017-06-20T07:30:46.412Z,101267.55
2017-06-20T07:33:18.859Z,101273.20
2017-06-20T07:35:51.257Z,101274.89
2017-06-20T07:38:23.667Z,101275.16
2017-06-20T07:40:56.007Z,101283.45
2017-06-20T07:43:28.347Z,101281.86
2017-06-20T07:46:00.585Z,101282.94
2017-06-20T07:48:32.768Z,101288.73
2017-06-20T07:51:05.074Z,101298.91
2017-06-20T07:53:37.728Z,101291.41
2017-06-20T07:56:09.808Z,101292.97
2017-06-20T07:58:42.504Z,101296.32
2017-06-20T08:01:15.536Z,101301.00
2017-06-20T08:03:48.067Z,101298.33
2017-06-20T08:06:20.675Z,101303.55
2017-06-20T08:08:52.892Z,101308.95
2017-06-20T08:11:25.332Z,101313.56
2017-06-20T08:13:57.760Z,101311.22
2017-06-20T08:16:30.060Z,101304.69
2017-06-20T08:19:02.480Z,101307.41
2017-06-20T08:21:51.959Z,101311.05
2017-06-20T08:24:24.412Z,101313.27
2017-06-20T08:26:56.280Z,101313.25
2017-06-20T08:29:28.728Z,101317.77
2017-06-20T08:32:01.257Z,101318.31
2017-06-20T08:34:34.134Z,101314.73
2017-06-20T08:37:11.931Z,101313.54
2017-06-20T08:39:44.227Z,101308.59
2017-06-20T08:42:16.713Z,101313.69
2017-06-20T08:44:49.059Z,101312.27
2017-06-20T08:47:21.424Z,101317.36
2017-06-20T08:49:54.060Z,101319.16
2017-06-20T08:52:26.532Z,101319.20
2017-06-20T08:54:58.825Z,101321.74
2017-06-20T08:57:31.340Z,101319.69
2017-06-20T09:00:03.416Z,101313.23
2017-06-20T09:02:35.752Z,101322.55
2017-06-20T09:05:08.104Z,101317.86
2017-06-20T09:07:40.916Z,101325.60
2017-06-20T09:10:13.099Z,101322.36
2017-06-20T09:12:45.335Z,101327.89
2017-06-20T09:15:17.527Z,101330.56
2017-06-20T09:17:49.856Z,101327.89
2017-06-20T09:20:22.240Z,101329.09
2017-06-20T09:22:54.608Z,101326.14
2017-06-20T09:25:26.910Z,101321.50
2017-06-20T09:27:59.240Z,101327.01
2017-06-20T09:30:31.579Z,101330.73
2017-06-20T09:33:03.948Z,101322.47
2017-06-20T09:35:36.544Z,101327.36
2017-06-20T09:38:08.528Z,101332.53
2017-06-20T09:40:40.920Z,101325.83
2017-06-20T09:43:19.545Z,101334.83
2017-06-20T09:45:51.734Z,101330.02
2017-06-20T09:48:24.144Z,101327.81
2017-06-20T09:50:56.507Z,101331.16
2017-06-20T09:53:29.725Z,101326.33
2017-06-20T09:56:03.277Z,101322.90
2017-06-20T09:58:35.681Z,101328.52
2017-06-20T10:01:09.052Z,101324.66
2017-06-20T10:03:41.808Z,101328.12
2017-06-20T10:06:13.922Z,101323.39
2017-06-20T10:08:46.300Z,101319.09
2017-06-20T10:11:18.767Z,101316.36
2017-06-20T10:13:51.146Z,101332.73
2017-06-20T10:16:23.569Z,101325.42
2017-06-20T10:18:55.945Z,101321.58
2017-06-20T10:21:28.337Z,101324.70
2017-06-20T10:24:00.725Z,101323.47
2017-06-20T10:26:33.037Z,101315.21
2017-06-20T10:29:05.400Z,101318.33
2017-06-20T10:31:37.743Z,101318.07
2017-06-20T10:34:10.060Z,101317.47
2017-06-20T10:36:42.177Z,101310.06
2017-06-20T10:39:14.464Z,101319.12
2017-06-20T10:41:46.793Z,101312.53
2017-06-20T10:44:19.056Z,101309.38
2017-06-20T10:46:51.458Z,101325.08
2017-06-20T10:49:23.833Z,101315.55
2017-06-20T10:51:56.247Z,101311.81
2017-06-20T10:54:28.585Z,101316.04
2017-06-20T10:57:00.977Z,101312.88
2017-06-20T10:59:33.348Z,101315.98
2017-06-20T11:02:05.734Z,101320.58
2017-06-20T11:04:38.106Z,101311.45
2017-06-20T11:07:10.480Z,101309.67
2017-06-20T11:09:42.950Z,101311.75
2017-06-20T11:12:15.345Z,101318.27
2017-06-20T11:14:47.736Z,101314.73
2017-06-20T11:17:20.295Z,101313.06
2017-06-20T11:19:52.664Z,101311.61
2017-06-20T11:22:25.064Z,101313.02
2017-06-20T11:24:57.497Z,101312.70
2017-06-20T11:27:30.544Z,101317.72
2017-06-20T11:30:03.149Z,101313.88
2017-06-20T11:32:35.452Z,101312.86
2017-06-20T11:35:07.994Z,101319.61
2017-06-20T11:37:40.532Z,101315.39
2017-06-20T11:40:12.915Z,101315.72
2017-06-20T11:42:45.199Z,101313.64
2017-06-20T11:45:17.465Z,101316.59
2017-06-20T11:47:49.928Z,101312.30
2017-06-20T11:50:22.385Z,101318.27
2017-06-20T11:52:55.680Z,101314.81
2017-06-20T11:55:28.156Z,101312.36
2017-06-20T11:58:00.516Z,101321.34
2017-06-20T12:00:32.840Z,101316.10
2017-06-20T12:03:06.018Z,101312.08
2017-06-20T12:05:38.665Z,101316.04
2017-06-20T12:08:11.063Z,101312.88
2017-06-20T12:10:43.424Z,101312.81
2017-06-20T12:13:16.063Z,101317.39
2017-06-20T12:15:48.261Z,101317.09
2017-06-20T12:18:20.797Z,101314.70
2017-06-20T12:20:53.150Z,101318.77
2017-06-20T12:23:25.504Z,101313.55
2017-06-20T12:25:57.384Z,101305.75
2017-06-20T12:28:29.756Z,101309.95
2017-06-20T12:31:02.130Z,101311.37
2017-06-20T12:33:34.688Z,101315.57
2017-06-20T12:36:07.911Z,101302.03
2017-06-20T12:38:40.187Z,101305.27
2017-06-20T12:41:12.596Z,101307.76
2017-06-20T12:43:44.969Z,101307.63
2017-06-20T12:46:17.256Z,101307.86
2017-06-20T12:48:49.687Z,101309.77
2017-06-20T12:51:22.092Z,101304.73
2017-06-20T12:53:54.459Z,101306.87
2017-06-20T12:56:26.688Z,101313.44
2017-06-20T12:58:58.999Z,101306.31
2017-06-20T13:01:31.397Z,101313.73
2017-06-20T13:04:03.864Z,101311.78
2017-06-20T13:06:36.227Z,101320.90
2017-06-20T13:09:08.641Z,101315.37
2017-06-20T13:11:40.440Z,101309.95
2017-06-20T13:14:13.519Z,101313.85
2017-06-20T13:16:45.983Z,101309.38
2017-06-20T13:19:18.362Z,101308.17
2017-06-20T13:21:50.492Z,101318.02
2017-06-20T13:24:22.847Z,101314.66
2017-06-20T13:26:55.080Z,101322.30
2017-06-20T13:29:27.463Z,101317.30
2017-06-20T13:31:59.834Z,101314.18
2017-06-20T13:34:32.252Z,101311.22
2017-06-20T13:37:04.740Z,101320.08
2017-06-20T13:39:37.136Z,101325.08
2017-06-20T13:42:09.311Z,101321.11
2017-06-20T13:44:41.699Z,101317.52
2017-06-20T13:47:14.124Z,101320.16
2017-06-20T13:49:47.448Z,101317.52
2017-06-20T13:52:19.884Z,101321.65
2017-06-20T13:54:53.442Z,101327.19
2017-06-20T13:57:25.834Z,101327.00
2017-06-20T13:59:58.067Z,101338.41
2017-06-20T14:02:30.376Z,101336.97
2017-06-20T14:05:03.935Z,101330.92
2017-06-20T14:07:36.221Z,101340.06
2017-06-20T14:10:08.415Z,101341.14
2017-06-20T14:12:40.718Z,101337.18
2017-06-20T14:15:13.066Z,101342.34
2017-06-20T14:17:45.448Z,101337.12
2017-06-20T14:20:17.828Z,101337.08
2017-06-20T14:22:50.664Z,101335.73
2017-06-20T14:25:25.113Z,101334.87
2017-06-20T14:27:57.906Z,101340.58
2017-06-20T14:30:30.754Z,101346.91
2017-06-20T14:33:02.636Z,101346.42
2017-06-20T14:35:34.947Z,101348.44
2017-06-20T14:38:07.369Z,101344.50
2017-06-20T14:40:39.784Z,101346.00
2017-06-20T14:43:12.456Z,101341.73
2017-06-20T14:45:45.367Z,101342.48
2017-06-20T14:48:18.715Z,101341.19
2017-06-20T14:50:51.487Z,101341.11
2017-06-20T14:53:23.789Z,101343.36
2017-06-20T14:55:56.547Z,101338.00
2017-06-20T14:58:28.707Z,101346.55
2017-06-20T15:01:01.154Z,101345.80
2017-06-20T15:03:33.319Z,101354.59
2017-06-20T15:06:05.752Z,101348.87
2017-06-20T15:08:38.256Z,101350.47
2017-06-20T15:11:10.503Z,101342.95
2017-06-20T15:13:42.795Z,101343.48
2017-06-20T15:16:15.319Z,101348.98
2017-06-20T15:18:47.629Z,101350.28
2017-06-20T15:21:22.425Z,101352.73
2017-06-20T15:23:54.526Z,101348.83
2017-06-20T15:26:26.683Z,101349.27
2017-06-20T15:28:59.002Z,101347.06
2017-06-20T15:31:32.789Z,101347.75
2017-06-20T15:34:04.773Z,101358.55
2017-06-20T15:36:37.190Z,101354.94
2017-06-20T15:39:09.417Z,101353.79
2017-06-20T15:41:41.836Z,101356.31
2017-06-20T15:44:14.125Z,101352.89
2017-06-20T15:46:46.439Z,101353.18
2017-06-20T15:49:18.778Z,101352.88
2017-06-20T15:51:51.141Z,101358.13
2017-06-20T15:54:23.531Z,101352.75
2017-06-20T15:56:55.895Z,101362.27
2017-06-20T15:59:28.443Z,101364.17
2017-06-20T16:02:00.631Z,101359.89
2017-06-20T16:04:32.979Z,101364.81
2017-06-20T16:07:05.472Z,101369.70
2017-06-20T16:09:37.823Z,101368.58
2017-06-20T16:12:10.327Z,101374.26
2017-06-20T16:14:42.591Z,101375.17
2017-06-20T16:17:14.959Z,101365.91
2017-06-20T16:19:47.340Z,101376.00
2017-06-20T16:22:19.742Z,101363.77
2017-06-20T16:24:52.005Z,101366.03
2017-06-20T16:27:24.400Z,101358.77
2017-06-20T16:29:56.672Z,101361.69
2017-06-20T16:32:29.137Z,101364.27
2017-06-20T16:35:02.215Z,101360.50
2017-06-20T16:37:34.892Z,101362.89
2017-06-20T16:40:07.258Z,101358.31
2017-06-20T16:42:40.679Z,101364.41
2017-06-20T16:45:13.038Z,101364.12
2017-06-20T16:47:45.691Z,101366.30
2017-06-20T16:50:17.787Z,101364.45
2017-06-20T16:52:50.319Z,101364.88
2017-06-20T16:55:22.735Z,101360.11
2017-06-20T16:57:55.219Z,101361.58
2017-06-20T17:00:27.464Z,101368.16
2017-06-20T17:02:59.925Z,101361.44
2017-06-20T17:05:32.700Z,101367.22
2017-06-20T17:08:04.756Z,101365.33
2017-06-20T17:10:37.183Z,101366.67
2017-06-20T17:13:09.604Z,101366.55
2017-06-20T17:15:41.959Z,101370.91
2017-06-20T17:18:14.983Z,101366.43
2017-06-20T17:20:48.004Z,101374.22
2017-06-20T17:23:20.933Z,101373.47
2017-06-20T17:25:53.400Z,101374.55
2017-06-20T17:28:26.025Z,101382.87
2017-06-20T17:30:58.029Z,101381.08
2017-06-20T17:33:30.513Z,101388.39
2017-06-20T17:36:06.251Z,101391.53
2017-06-20T17:38:38.383Z,101390.97
2017-06-20T17:41:10.668Z,101393.06
2017-06-20T17:43:44.223Z,101391.30
2017-06-20T17:46:16.463Z,101400.30
2017-06-20T17:48:48.834Z,101400.28
2017-06-20T17:51:21.376Z,101410.68
2017-06-20T17:53:53.472Z,101413.77
2017-06-20T17:56:25.844Z,101412.12
2017-06-20T17:58:58.341Z,101410.50
2017-06-20T18:01:30.723Z,101405.31
2017-06-20T18:07:02.736Z,101412.75
2017-06-20T18:09:35.160Z,101414.69
2017-06-20T18:12:07.519Z,101417.80
2017-06-20T18:14:39.809Z,101427.11
2017-06-20T18:17:13.140Z,101418.39
2017-06-20T18:19:45.538Z,101430.48
2017-06-20T18:22:17.944Z,101428.02
2017-06-20T18:24:50.295Z,101428.12
2017-06-20T18:27:23.432Z,101433.70
2017-06-20T18:29:56.188Z,101435.97
2017-06-20T18:32:28.836Z,101437.24
2017-06-20T18:35:00.883Z,101438.67
2017-06-20T18:37:34.196Z,101440.72
2017-06-20T18:40:06.579Z,101438.55
2017-06-20T18:42:39.936Z,101443.21
2017-06-20T18:45:12.255Z,101443.09
2017-06-20T18:47:44.658Z,101441.19
2017-06-20T18:50:16.996Z,101449.96
2017-06-20T18:52:49.322Z,101452.98
2017-06-20T18:55:21.736Z,101456.90
2017-06-20T18:57:54.143Z,101458.20
2017-06-20T19:00:26.625Z,101458.20
2017-06-20T19:02:58.955Z,101468.62
2017-06-20T19:05:31.356Z,101476.25
2017-06-20T19:08:03.676Z,101477.95
2017-06-20T19:10:36.089Z,101480.59
2017-06-20T19:13:08.471Z,101485.06
2017-06-20T19:15:40.837Z,101479.98
2017-06-20T19:18:13.205Z,101488.17
2017-06-20T19:20:45.725Z,101494.75
2017-06-20T19:23:18.476Z,101501.61
2017-06-20T19:25:50.544Z,101497.19
2017-06-20T19:28:22.939Z,101509.48
2017-06-20T19:30:55.287Z,101501.95
2017-06-20T19:33:27.607Z,101499.03
2017-06-20T19:36:00.077Z,101507.43
2017-06-20T19:38:32.497Z,101509.84
2017-06-20T19:41:04.804Z,101505.69
2017-06-20T19:43:37.479Z,101514.34
2017-06-20T19:46:09.542Z,101506.36
2017-06-20T19:48:41.925Z,101511.98
2017-06-20T19:51:14.222Z,101509.81
2017-06-20T19:53:47.520Z,101522.80
2017-06-20T19:56:19.972Z,101527.97
2017-06-20T19:58:52.442Z,101522.86
2017-06-20T20:01:24.883Z,101531.89
2017-06-20T20:03:57.475Z,101536.66
2017-06-20T20:06:29.640Z,101538.20
2017-06-20T20:09:02.043Z,101540.80
2017-06-20T20:11:34.396Z,101537.55
2017-06-20T20:14:06.825Z,101538.72
2017-06-20T20:16:39.224Z,101540.34
2017-06-20T20:19:11.649Z,101541.66
2017-06-20T20:21:44.517Z,101539.77
2017-06-20T20:24:16.654Z,101535.05
2017-06-20T20:26:48.940Z,101534.14
2017-06-20T20:29:21.432Z,101541.00
2017-06-20T20:31:53.672Z,101546.02
2017-06-20T20:34:25.976Z,101530.73
2017-06-20T20:36:58.245Z,101540.95
2017-06-20T20:39:30.699Z,101542.41
2017-06-20T20:42:03.124Z,101537.70
2017-06-20T20:44:35.493Z,101535.53
2017-06-20T20:47:07.856Z,101551.97
2017-06-20T20:49:40.282Z,101550.99
2017-06-20T20:52:12.572Z,101550.58
2017-06-20T20:54:44.997Z,101557.74
2017-06-20T20:57:17.865Z,101555.92
2017-06-20T20:59:50.023Z,101554.20
2017-06-20T21:02:22.359Z,101557.05
2017-06-20T21:04:54.761Z,101557.86
2017-06-20T21:07:27.209Z,101567.66
2017-06-20T21:09:59.738Z,101567.16
2017-06-20T21:12:31.978Z,101560.56
2017-06-20T21:15:04.448Z,101558.45
2017-06-20T21:17:36.783Z,101555.72
2017-06-20T21:20:09.199Z,101558.14
2017-06-20T21:22:41.593Z,101556.28
2017-06-20T21:25:14.067Z,101563.22
2017-06-20T21:27:46.375Z,101567.38
2017-06-20T21:30:19.378Z,101558.27
2017-06-20T21:32:52.471Z,101561.55
2017-06-20T21:35:24.864Z,101564.83
2017-06-20T21:37:56.864Z,101566.03
2017-06-20T21:40:29.223Z,101566.14
2017-06-20T21:43:01.582Z,101571.09
2017-06-20T21:45:33.930Z,101569.17
2017-06-20T21:48:06.292Z,101562.00
2017-06-20T21:50:38.631Z,101569.66
2017-06-20T21:53:11.024Z,101563.62
2017-06-20T21:55:43.394Z,101569.52
2017-06-20T21:58:15.799Z,101571.72
2017-06-20T22:00:48.323Z,101570.07
2017-06-20T22:03:20.643Z,101568.13
2017-06-20T22:05:53.147Z,101573.53
2017-06-20T22:08:25.494Z,101576.58
2017-06-20T22:10:57.987Z,101575.77
2017-06-20T22:13:30.362Z,101576.39
2017-06-20T22:16:03.347Z,101578.91
2017-06-20T22:18:35.179Z,101569.36
2017-06-20T22:21:07.601Z,101570.02
2017-06-20T22:23:39.972Z,101573.28
2017-06-20T22:26:12.376Z,101565.02
2017-06-20T22:28:44.791Z,101570.73
2017-06-20T22:31:17.584Z,101561.80
2017-06-20T22:33:50.411Z,101559.30
2017-06-20T22:36:22.940Z,101569.13
2017-06-20T22:38:55.320Z,101569.13
2017-06-20T22:41:27.683Z,101575.38
2017-06-20T22:44:00.045Z,101580.25
2017-06-20T22:46:32.558Z,101571.06
2017-06-20T22:49:04.883Z,101577.81
2017-06-20T22:51:37.304Z,101574.50
2017-06-20T22:54:09.640Z,101578.24
2017-06-20T22:56:42.076Z,101575.51
2017-06-20T22:59:14.329Z,101579.66
2017-06-20T23:01:47.055Z,101579.36
2017-06-20T23:04:20.259Z,101585.05
2017-06-20T23:06:52.504Z,101580.98
2017-06-20T23:09:24.847Z,101586.63
2017-06-20T23:11:58.336Z,101585.66
2017-06-20T23:14:30.709Z,101586.17
2017-06-20T23:17:03.224Z,101585.97
2017-06-20T23:19:35.741Z,101582.41
2017-06-20T23:22:07.887Z,101592.90
2017-06-20T23:24:40.283Z,101587.41
2017-06-20T23:27:13.976Z,101594.41
2017-06-20T23:29:47.011Z,101587.48
2017-06-20T23:32:19.280Z,101585.95
2017-06-20T23:34:51.631Z,101588.44
2017-06-20T23:37:24.167Z,101593.36
2017-06-20T23:39:56.651Z,101588.58
2017-06-20T23:42:28.655Z,101588.45
2017-06-20T23:45:00.928Z,101577.97
2017-06-20T23:47:33.147Z,101578.11
2017-06-20T23:50:05.484Z,101577.37
2017-06-20T23:52:37.887Z,101585.20
2017-06-20T23:55:10.307Z,101582.83
2017-06-20T23:57:42.712Z,101577.88
